Country
Station

 

Weather  for  Kristiansand/Kjevik  -  Norway    Norway

  
8 °C (46 °F)
    
 
 

Current METAR for Kristiansand/Kjevik is :

ENCN 191350Z 26011G22KT 240V300 9999 BKN030 08/02 Q1000

 

This is a report for Kristiansand/Kjevik - Norway.
 
The report was made 22 minutes ago, at 13:50 UTC .
The wind was blowing at a speed of 5.7 meters per second (12.7 miles per hour) with gusts up to 11.3 meters per second (25.3 miles per hour) from west (260°), varying between west/southwest (240°) and west/northwest (300°).
 
The temperature was 8 °C (46 °F), with a dew-point at 2 °C (36 °F).
The atmospheric pressure was 1000 hPa (29.53 inHg).
The relative humidity was 65.8%.
 
There were broken clouds at a height of 914 meters (3000 feet).
 
The overall visibility was greater than 10 kilometers (6.2 miles).
 

 
 
 
 

Country :   A   B   C   D   E   F   G   H   I   J   K   L   M   N   O   P   Q   R   S   T   U   V   W   Y   Z

 

Site Info  |  Disclaimer  |  Credits  |  Privacy
Contact us  |  Add to favorites
© 2013-2019 METARs - All rights reserved